sensor_id;sensor_type;location;lat;lon;timestamp;P1;durP1;ratioP1;P2;durP2;ratioP2
15295;SDS011;7749;49.964;7.890;2023-03-14T00:01:20;3.77;;;2.30;;
15295;SDS011;7749;49.964;7.890;2023-03-14T00:03:48;4.17;;;2.20;;
15295;SDS011;7749;49.964;7.890;2023-03-14T00:06:16;3.80;;;2.03;;
15295;SDS011;7749;49.964;7.890;2023-03-14T00:08:45;4.57;;;2.17;;
15295;SDS011;7749;49.964;7.890;2023-03-14T00:11:14;3.27;;;2.30;;
15295;SDS011;7749;49.964;7.890;2023-03-14T00:13:50;5.07;;;1.93;;
15295;SDS011;7749;49.964;7.890;2023-03-14T00:16:19;5.30;;;1.83;;
15295;SDS011;7749;49.964;7.890;2023-03-14T00:18:47;5.47;;;1.97;;
15295;SDS011;7749;49.964;7.890;2023-03-14T00:21:15;3.67;;;2.10;;
15295;SDS011;7749;49.964;7.890;2023-03-14T00:23:42;4.23;;;2.10;;
15295;SDS011;7749;49.964;7.890;2023-03-14T00:26:11;3.93;;;1.97;;
15295;SDS011;7749;49.964;7.890;2023-03-14T00:28:41;3.20;;;1.90;;
15295;SDS011;7749;49.964;7.890;2023-03-14T00:31:14;5.80;;;2.37;;
15295;SDS011;7749;49.964;7.890;2023-03-14T00:33:45;2.07;;;1.73;;
15295;SDS011;7749;49.964;7.890;2023-03-14T00:36:14;5.43;;;2.20;;
15295;SDS011;7749;49.964;7.890;2023-03-14T00:38:45;4.87;;;2.20;;
15295;SDS011;7749;49.964;7.890;2023-03-14T00:41:18;3.93;;;1.90;;
15295;SDS011;7749;49.964;7.890;2023-03-14T00:43:51;5.03;;;1.93;;
15295;SDS011;7749;49.964;7.890;2023-03-14T00:46:19;5.30;;;2.10;;
15295;SDS011;7749;49.964;7.890;2023-03-14T00:48:47;4.30;;;2.10;;
15295;SDS011;7749;49.964;7.890;2023-03-14T00:51:15;5.00;;;1.90;;
15295;SDS011;7749;49.964;7.890;2023-03-14T00:53:42;8.37;;;2.30;;
15295;SDS011;7749;49.964;7.890;2023-03-14T00:56:11;4.67;;;2.00;;
15295;SDS011;7749;49.964;7.890;2023-03-14T00:58:40;3.33;;;2.10;;
15295;SDS011;7749;49.964;7.890;2023-03-14T01:01:09;6.60;;;2.00;;
15295;SDS011;7749;49.964;7.890;2023-03-14T01:03:45;7.13;;;2.73;;
15295;SDS011;7749;49.964;7.890;2023-03-14T01:06:14;4.33;;;1.80;;
15295;SDS011;7749;49.964;7.890;2023-03-14T01:08:44;3.23;;;1.53;;
15295;SDS011;7749;49.964;7.890;2023-03-14T01:11:13;5.40;;;1.80;;
15295;SDS011;7749;49.964;7.890;2023-03-14T01:13:50;4.83;;;2.13;;
15295;SDS011;7749;49.964;7.890;2023-03-14T01:16:18;5.30;;;2.00;;
15295;SDS011;7749;49.964;7.890;2023-03-14T01:18:47;5.73;;;1.83;;
15295;SDS011;7749;49.964;7.890;2023-03-14T01:23:53;5.13;;;1.90;;
15295;SDS011;7749;49.964;7.890;2023-03-14T01:26:23;8.07;;;2.30;;
15295;SDS011;7749;49.964;7.890;2023-03-14T01:28:53;5.03;;;2.10;;
15295;SDS011;7749;49.964;7.890;2023-03-14T01:31:22;7.00;;;2.37;;
15295;SDS011;7749;49.964;7.890;2023-03-14T01:33:51;6.13;;;2.40;;
15295;SDS011;7749;49.964;7.890;2023-03-14T01:36:19;5.57;;;2.03;;
15295;SDS011;7749;49.964;7.890;2023-03-14T01:38:47;4.10;;;1.97;;
15295;SDS011;7749;49.964;7.890;2023-03-14T01:41:16;4.40;;;1.97;;
15295;SDS011;7749;49.964;7.890;2023-03-14T01:43:45;5.40;;;2.47;;
15295;SDS011;7749;49.964;7.890;2023-03-14T01:46:17;4.90;;;2.10;;
15295;SDS011;7749;49.964;7.890;2023-03-14T01:48:48;5.53;;;2.70;;
15295;SDS011;7749;49.964;7.890;2023-03-14T01:51:25;7.10;;;2.77;;
15295;SDS011;7749;49.964;7.890;2023-03-14T01:54:02;8.33;;;2.60;;
15295;SDS011;7749;49.964;7.890;2023-03-14T01:56:55;6.43;;;2.67;;
15295;SDS011;7749;49.964;7.890;2023-03-14T01:59:28;7.77;;;3.13;;
15295;SDS011;7749;49.964;7.890;2023-03-14T02:01:58;5.73;;;2.70;;
15295;SDS011;7749;49.964;7.890;2023-03-14T02:04:30;5.80;;;2.43;;
15295;SDS011;7749;49.964;7.890;2023-03-14T02:07:22;6.67;;;2.30;;
15295;SDS011;7749;49.964;7.890;2023-03-14T02:09:48;6.97;;;2.90;;
15295;SDS011;7749;49.964;7.890;2023-03-14T02:12:17;9.00;;;2.60;;
15295;SDS011;7749;49.964;7.890;2023-03-14T02:14:47;6.70;;;2.40;;
15295;SDS011;7749;49.964;7.890;2023-03-14T02:17:16;10.43;;;2.80;;
15295;SDS011;7749;49.964;7.890;2023-03-14T02:22:38;9.37;;;3.60;;
15295;SDS011;7749;49.964;7.890;2023-03-14T02:27:57;6.03;;;2.77;;
15295;SDS011;7749;49.964;7.890;2023-03-14T02:30:27;6.83;;;2.50;;
15295;SDS011;7749;49.964;7.890;2023-03-14T02:33:00;6.13;;;2.17;;
15295;SDS011;7749;49.964;7.890;2023-03-14T02:35:33;6.97;;;2.60;;
15295;SDS011;7749;49.964;7.890;2023-03-14T02:40:48;8.70;;;2.40;;
15295;SDS011;7749;49.964;7.890;2023-03-14T02:43:16;8.87;;;2.93;;
15295;SDS011;7749;49.964;7.890;2023-03-14T02:45:45;5.70;;;2.73;;
15295;SDS011;7749;49.964;7.890;2023-03-14T02:48:18;6.03;;;2.83;;
15295;SDS011;7749;49.964;7.890;2023-03-14T02:50:49;8.37;;;2.53;;
15295;SDS011;7749;49.964;7.890;2023-03-14T02:53:20;7.43;;;2.63;;
15295;SDS011;7749;49.964;7.890;2023-03-14T02:55:56;6.33;;;2.40;;
15295;SDS011;7749;49.964;7.890;2023-03-14T02:58:24;7.07;;;2.00;;
15295;SDS011;7749;49.964;7.890;2023-03-14T03:00:51;5.67;;;1.83;;
15295;SDS011;7749;49.964;7.890;2023-03-14T03:03:19;4.37;;;1.80;;
15295;SDS011;7749;49.964;7.890;2023-03-14T03:05:50;6.83;;;1.77;;
15295;SDS011;7749;49.964;7.890;2023-03-14T03:08:20;6.90;;;1.80;;
15295;SDS011;7749;49.964;7.890;2023-03-14T03:10:49;6.33;;;2.10;;
15295;SDS011;7749;49.964;7.890;2023-03-14T03:13:18;6.83;;;2.13;;
15295;SDS011;7749;49.964;7.890;2023-03-14T03:15:46;4.30;;;2.03;;
15295;SDS011;7749;49.964;7.890;2023-03-14T03:18:14;6.77;;;2.00;;
15295;SDS011;7749;49.964;7.890;2023-03-14T03:20:42;6.40;;;2.30;;
15295;SDS011;7749;49.964;7.890;2023-03-14T03:23:09;6.07;;;2.10;;
15295;SDS011;7749;49.964;7.890;2023-03-14T03:25:37;4.67;;;1.70;;
15295;SDS011;7749;49.964;7.890;2023-03-14T03:28:05;4.60;;;1.97;;
15295;SDS011;7749;49.964;7.890;2023-03-14T03:30:38;5.70;;;1.73;;
15295;SDS011;7749;49.964;7.890;2023-03-14T03:33:07;7.80;;;2.53;;
15295;SDS011;7749;49.964;7.890;2023-03-14T03:35:41;7.50;;;1.97;;
15295;SDS011;7749;49.964;7.890;2023-03-14T03:38:09;4.80;;;1.90;;
15295;SDS011;7749;49.964;7.890;2023-03-14T03:40:38;5.37;;;1.67;;
15295;SDS011;7749;49.964;7.890;2023-03-14T03:43:06;6.27;;;1.83;;
15295;SDS011;7749;49.964;7.890;2023-03-14T03:45:34;5.43;;;1.90;;
15295;SDS011;7749;49.964;7.890;2023-03-14T03:48:02;5.50;;;1.90;;
15295;SDS011;7749;49.964;7.890;2023-03-14T03:50:29;7.20;;;1.63;;
15295;SDS011;7749;49.964;7.890;2023-03-14T03:52:57;6.80;;;1.70;;
15295;SDS011;7749;49.964;7.890;2023-03-14T03:55:25;6.10;;;1.60;;
15295;SDS011;7749;49.964;7.890;2023-03-14T03:57:55;5.60;;;1.90;;
15295;SDS011;7749;49.964;7.890;2023-03-14T04:00:22;6.40;;;2.10;;
15295;SDS011;7749;49.964;7.890;2023-03-14T04:02:50;6.83;;;2.03;;
15295;SDS011;7749;49.964;7.890;2023-03-14T04:05:18;8.83;;;1.90;;
15295;SDS011;7749;49.964;7.890;2023-03-14T04:07:46;8.60;;;1.87;;
15295;SDS011;7749;49.964;7.890;2023-03-14T04:10:13;4.97;;;1.60;;
15295;SDS011;7749;49.964;7.890;2023-03-14T04:12:41;6.63;;;2.13;;
15295;SDS011;7749;49.964;7.890;2023-03-14T04:15:09;7.60;;;2.10;;
15295;SDS011;7749;49.964;7.890;2023-03-14T04:17:37;5.93;;;2.00;;
15295;SDS011;7749;49.964;7.890;2023-03-14T04:20:05;6.40;;;1.70;;
15295;SDS011;7749;49.964;7.890;2023-03-14T04:22:38;5.30;;;1.63;;
15295;SDS011;7749;49.964;7.890;2023-03-14T04:25:06;4.50;;;1.60;;
15295;SDS011;7749;49.964;7.890;2023-03-14T04:27:34;6.33;;;1.80;;
15295;SDS011;7749;49.964;7.890;2023-03-14T04:30:02;3.97;;;1.90;;
15295;SDS011;7749;49.964;7.890;2023-03-14T04:32:30;4.67;;;2.00;;
15295;SDS011;7749;49.964;7.890;2023-03-14T04:34:57;8.47;;;2.43;;
15295;SDS011;7749;49.964;7.890;2023-03-14T04:37:25;4.87;;;2.27;;
15295;SDS011;7749;49.964;7.890;2023-03-14T04:39:53;4.07;;;2.07;;
15295;SDS011;7749;49.964;7.890;2023-03-14T04:42:20;6.30;;;2.50;;
15295;SDS011;7749;49.964;7.890;2023-03-14T04:44:48;3.43;;;1.90;;
15295;SDS011;7749;49.964;7.890;2023-03-14T04:47:17;5.03;;;2.00;;
15295;SDS011;7749;49.964;7.890;2023-03-14T04:49:44;3.30;;;1.60;;
15295;SDS011;7749;49.964;7.890;2023-03-14T04:52:12;3.97;;;2.30;;
15295;SDS011;7749;49.964;7.890;2023-03-14T04:54:39;3.60;;;1.87;;
15295;SDS011;7749;49.964;7.890;2023-03-14T04:57:07;3.63;;;1.60;;
15295;SDS011;7749;49.964;7.890;2023-03-14T04:59:35;4.00;;;2.13;;
15295;SDS011;7749;49.964;7.890;2023-03-14T05:02:02;6.17;;;2.00;;
15295;SDS011;7749;49.964;7.890;2023-03-14T05:04:30;5.60;;;1.83;;
15295;SDS011;7749;49.964;7.890;2023-03-14T05:07:00;4.47;;;2.00;;
15295;SDS011;7749;49.964;7.890;2023-03-14T05:09:27;3.87;;;1.87;;
15295;SDS011;7749;49.964;7.890;2023-03-14T05:11:55;4.57;;;1.63;;
15295;SDS011;7749;49.964;7.890;2023-03-14T05:14:22;3.07;;;1.53;;
15295;SDS011;7749;49.964;7.890;2023-03-14T05:16:50;6.10;;;2.00;;
15295;SDS011;7749;49.964;7.890;2023-03-14T05:19:18;4.10;;;1.60;;
15295;SDS011;7749;49.964;7.890;2023-03-14T05:21:45;3.00;;;1.30;;
15295;SDS011;7749;49.964;7.890;2023-03-14T05:24:13;2.23;;;1.40;;
15295;SDS011;7749;49.964;7.890;2023-03-14T05:26:40;3.30;;;1.57;;
15295;SDS011;7749;49.964;7.890;2023-03-14T05:29:08;3.67;;;1.23;;
15295;SDS011;7749;49.964;7.890;2023-03-14T05:31:36;4.43;;;1.77;;
15295;SDS011;7749;49.964;7.890;2023-03-14T05:34:03;2.43;;;0.90;;
15295;SDS011;7749;49.964;7.890;2023-03-14T05:36:31;2.00;;;0.97;;
15295;SDS011;7749;49.964;7.890;2023-03-14T05:38:59;3.63;;;1.07;;
15295;SDS011;7749;49.964;7.890;2023-03-14T05:41:27;3.23;;;1.00;;
15295;SDS011;7749;49.964;7.890;2023-03-14T05:43:54;4.23;;;1.47;;
15295;SDS011;7749;49.964;7.890;2023-03-14T05:46:22;2.10;;;1.00;;
15295;SDS011;7749;49.964;7.890;2023-03-14T05:48:49;2.13;;;0.90;;
15295;SDS011;7749;49.964;7.890;2023-03-14T05:51:17;2.60;;;0.97;;
15295;SDS011;7749;49.964;7.890;2023-03-14T05:53:45;1.90;;;0.93;;
15295;SDS011;7749;49.964;7.890;2023-03-14T05:56:12;1.73;;;1.03;;
15295;SDS011;7749;49.964;7.890;2023-03-14T05:58:40;1.87;;;0.80;;
15295;SDS011;7749;49.964;7.890;2023-03-14T06:01:08;2.20;;;1.17;;
15295;SDS011;7749;49.964;7.890;2023-03-14T06:03:36;2.73;;;1.60;;
15295;SDS011;7749;49.964;7.890;2023-03-14T06:06:04;2.17;;;1.20;;
15295;SDS011;7749;49.964;7.890;2023-03-14T06:08:31;4.83;;;0.90;;
15295;SDS011;7749;49.964;7.890;2023-03-14T06:10:59;2.10;;;0.90;;
15295;SDS011;7749;49.964;7.890;2023-03-14T06:13:29;4.03;;;1.10;;
15295;SDS011;7749;49.964;7.890;2023-03-14T06:15:57;2.40;;;1.10;;
15295;SDS011;7749;49.964;7.890;2023-03-14T06:18:24;1.77;;;0.80;;
15295;SDS011;7749;49.964;7.890;2023-03-14T06:20:55;2.13;;;1.10;;
15295;SDS011;7749;49.964;7.890;2023-03-14T06:23:23;2.10;;;1.00;;
15295;SDS011;7749;49.964;7.890;2023-03-14T06:25:52;1.90;;;1.00;;
15295;SDS011;7749;49.964;7.890;2023-03-14T06:28:19;2.40;;;1.07;;
15295;SDS011;7749;49.964;7.890;2023-03-14T06:30:47;4.20;;;1.63;;
15295;SDS011;7749;49.964;7.890;2023-03-14T06:33:15;2.13;;;0.90;;
15295;SDS011;7749;49.964;7.890;2023-03-14T06:35:42;1.63;;;0.97;;
15295;SDS011;7749;49.964;7.890;2023-03-14T06:38:10;2.10;;;0.90;;
15295;SDS011;7749;49.964;7.890;2023-03-14T06:40:37;4.23;;;1.40;;
15295;SDS011;7749;49.964;7.890;2023-03-14T06:43:05;3.00;;;1.30;;
15295;SDS011;7749;49.964;7.890;2023-03-14T06:45:33;3.40;;;1.80;;
15295;SDS011;7749;49.964;7.890;2023-03-14T06:48:00;6.07;;;2.53;;
15295;SDS011;7749;49.964;7.890;2023-03-14T06:50:28;7.13;;;3.50;;
15295;SDS011;7749;49.964;7.890;2023-03-14T06:52:56;6.13;;;2.60;;
15295;SDS011;7749;49.964;7.890;2023-03-14T06:55:23;4.87;;;3.00;;
15295;SDS011;7749;49.964;7.890;2023-03-14T06:57:51;4.83;;;2.20;;
15295;SDS011;7749;49.964;7.890;2023-03-14T07:00:19;2.73;;;1.50;;
15295;SDS011;7749;49.964;7.890;2023-03-14T07:02:47;3.13;;;2.20;;
15295;SDS011;7749;49.964;7.890;2023-03-14T07:05:14;5.37;;;2.20;;
15295;SDS011;7749;49.964;7.890;2023-03-14T07:07:42;3.57;;;2.00;;
15295;SDS011;7749;49.964;7.890;2023-03-14T07:10:10;5.33;;;2.67;;
15295;SDS011;7749;49.964;7.890;2023-03-14T07:12:37;3.60;;;1.57;;
15295;SDS011;7749;49.964;7.890;2023-03-14T07:15:05;2.23;;;1.70;;
15295;SDS011;7749;49.964;7.890;2023-03-14T07:17:46;4.47;;;1.87;;
15295;SDS011;7749;49.964;7.890;2023-03-14T07:20:15;3.87;;;1.50;;
15295;SDS011;7749;49.964;7.890;2023-03-14T07:22:43;2.37;;;1.27;;
15295;SDS011;7749;49.964;7.890;2023-03-14T07:25:13;2.87;;;1.10;;
15295;SDS011;7749;49.964;7.890;2023-03-14T07:27:44;2.27;;;0.90;;
15295;SDS011;7749;49.964;7.890;2023-03-14T07:30:13;2.40;;;1.00;;
15295;SDS011;7749;49.964;7.890;2023-03-14T07:32:41;2.07;;;0.80;;
15295;SDS011;7749;49.964;7.890;2023-03-14T07:35:09;3.23;;;1.03;;
15295;SDS011;7749;49.964;7.890;2023-03-14T07:37:37;1.33;;;0.77;;
15295;SDS011;7749;49.964;7.890;2023-03-14T07:40:05;3.93;;;1.10;;
15295;SDS011;7749;49.964;7.890;2023-03-14T07:42:34;2.77;;;0.80;;
15295;SDS011;7749;49.964;7.890;2023-03-14T07:45:02;2.80;;;0.83;;
15295;SDS011;7749;49.964;7.890;2023-03-14T07:47:30;2.60;;;0.90;;
15295;SDS011;7749;49.964;7.890;2023-03-14T07:49:57;1.93;;;0.97;;
15295;SDS011;7749;49.964;7.890;2023-03-14T07:52:25;0.77;;;0.70;;
15295;SDS011;7749;49.964;7.890;2023-03-14T07:54:53;1.83;;;0.90;;
15295;SDS011;7749;49.964;7.890;2023-03-14T07:57:21;2.70;;;0.90;;
15295;SDS011;7749;49.964;7.890;2023-03-14T07:59:48;3.93;;;0.80;;
15295;SDS011;7749;49.964;7.890;2023-03-14T08:02:16;1.20;;;0.90;;
15295;SDS011;7749;49.964;7.890;2023-03-14T08:04:47;1.97;;;0.90;;
15295;SDS011;7749;49.964;7.890;2023-03-14T08:07:16;1.43;;;0.70;;
15295;SDS011;7749;49.964;7.890;2023-03-14T08:09:44;2.53;;;1.00;;
15295;SDS011;7749;49.964;7.890;2023-03-14T08:12:11;0.63;;;0.63;;
15295;SDS011;7749;49.964;7.890;2023-03-14T08:14:39;1.90;;;0.93;;
15295;SDS011;7749;49.964;7.890;2023-03-14T08:17:07;1.40;;;0.80;;
15295;SDS011;7749;49.964;7.890;2023-03-14T08:19:36;2.60;;;0.90;;
15295;SDS011;7749;49.964;7.890;2023-03-14T08:22:04;1.70;;;0.83;;
15295;SDS011;7749;49.964;7.890;2023-03-14T08:24:31;3.50;;;0.90;;
15295;SDS011;7749;49.964;7.890;2023-03-14T08:26:59;1.30;;;0.77;;
15295;SDS011;7749;49.964;7.890;2023-03-14T08:29:27;1.30;;;0.87;;
15295;SDS011;7749;49.964;7.890;2023-03-14T08:31:54;3.57;;;1.03;;
15295;SDS011;7749;49.964;7.890;2023-03-14T08:34:22;2.13;;;0.90;;
15295;SDS011;7749;49.964;7.890;2023-03-14T08:36:50;3.87;;;1.10;;
15295;SDS011;7749;49.964;7.890;2023-03-14T08:39:17;5.57;;;1.00;;
15295;SDS011;7749;49.964;7.890;2023-03-14T08:41:45;1.33;;;1.03;;
15295;SDS011;7749;49.964;7.890;2023-03-14T08:44:13;2.53;;;0.70;;
15295;SDS011;7749;49.964;7.890;2023-03-14T08:46:43;1.17;;;0.90;;
15295;SDS011;7749;49.964;7.890;2023-03-14T08:49:11;2.20;;;1.10;;
15295;SDS011;7749;49.964;7.890;2023-03-14T08:51:38;3.00;;;0.90;;
15295;SDS011;7749;49.964;7.890;2023-03-14T08:54:08;3.90;;;0.80;;
15295;SDS011;7749;49.964;7.890;2023-03-14T08:56:37;1.13;;;0.73;;
15295;SDS011;7749;49.964;7.890;2023-03-14T08:59:05;0.80;;;0.60;;
15295;SDS011;7749;49.964;7.890;2023-03-14T09:01:33;1.27;;;0.70;;
15295;SDS011;7749;49.964;7.890;2023-03-14T09:04:01;1.80;;;0.80;;
15295;SDS011;7749;49.964;7.890;2023-03-14T09:06:28;0.90;;;0.60;;
15295;SDS011;7749;49.964;7.890;2023-03-14T09:08:56;1.00;;;0.70;;
15295;SDS011;7749;49.964;7.890;2023-03-14T09:11:23;1.43;;;0.70;;
15295;SDS011;7749;49.964;7.890;2023-03-14T09:13:51;0.93;;;0.70;;
15295;SDS011;7749;49.964;7.890;2023-03-14T09:16:19;1.43;;;0.70;;
15295;SDS011;7749;49.964;7.890;2023-03-14T09:18:46;1.30;;;0.70;;
15295;SDS011;7749;49.964;7.890;2023-03-14T09:21:14;1.37;;;0.70;;
15295;SDS011;7749;49.964;7.890;2023-03-14T09:23:42;1.63;;;0.70;;
15295;SDS011;7749;49.964;7.890;2023-03-14T09:26:12;1.63;;;0.70;;
15295;SDS011;7749;49.964;7.890;2023-03-14T09:28:40;1.00;;;0.60;;
15295;SDS011;7749;49.964;7.890;2023-03-14T09:31:09;1.10;;;0.90;;
15295;SDS011;7749;49.964;7.890;2023-03-14T09:33:38;4.90;;;0.90;;
15295;SDS011;7749;49.964;7.890;2023-03-14T09:36:06;10.70;;;1.33;;
15295;SDS011;7749;49.964;7.890;2023-03-14T09:38:34;2.70;;;1.00;;
15295;SDS011;7749;49.964;7.890;2023-03-14T09:41:03;1.13;;;0.70;;
15295;SDS011;7749;49.964;7.890;2023-03-14T09:43:42;1.17;;;0.77;;
15295;SDS011;7749;49.964;7.890;2023-03-14T09:46:12;3.73;;;0.97;;
15295;SDS011;7749;49.964;7.890;2023-03-14T09:48:41;1.10;;;0.60;;
15295;SDS011;7749;49.964;7.890;2023-03-14T09:51:14;1.37;;;0.70;;
15295;SDS011;7749;49.964;7.890;2023-03-14T09:53:45;1.80;;;0.60;;
15295;SDS011;7749;49.964;7.890;2023-03-14T09:56:21;2.20;;;0.50;;
15295;SDS011;7749;49.964;7.890;2023-03-14T09:58:54;0.60;;;0.50;;
15295;SDS011;7749;49.964;7.890;2023-03-14T10:01:25;1.33;;;0.50;;
15295;SDS011;7749;49.964;7.890;2023-03-14T10:04:06;0.30;;;0.30;;
15295;SDS011;7749;49.964;7.890;2023-03-14T10:06:40;1.07;;;0.30;;
15295;SDS011;7749;49.964;7.890;2023-03-14T10:09:11;1.47;;;0.53;;
15295;SDS011;7749;49.964;7.890;2023-03-14T10:11:53;3.00;;;1.03;;
15295;SDS011;7749;49.964;7.890;2023-03-14T10:14:33;1.70;;;0.60;;
15295;SDS011;7749;49.964;7.890;2023-03-14T10:17:07;0.50;;;0.50;;
15295;SDS011;7749;49.964;7.890;2023-03-14T10:19:37;0.60;;;0.60;;
15295;SDS011;7749;49.964;7.890;2023-03-14T10:22:20;0.93;;;0.70;;
15295;SDS011;7749;49.964;7.890;2023-03-14T10:24:52;1.00;;;0.60;;
15295;SDS011;7749;49.964;7.890;2023-03-14T10:27:30;0.90;;;0.50;;
15295;SDS011;7749;49.964;7.890;2023-03-14T10:30:04;1.43;;;0.60;;
15295;SDS011;7749;49.964;7.890;2023-03-14T10:32:37;4.63;;;0.80;;
15295;SDS011;7749;49.964;7.890;2023-03-14T10:35:17;1.00;;;0.63;;
15295;SDS011;7749;49.964;7.890;2023-03-14T10:37:57;0.53;;;0.53;;
15295;SDS011;7749;49.964;7.890;2023-03-14T10:40:28;0.90;;;0.60;;
15295;SDS011;7749;49.964;7.890;2023-03-14T10:42:58;0.60;;;0.50;;
15295;SDS011;7749;49.964;7.890;2023-03-14T10:48:22;0.47;;;0.40;;
15295;SDS011;7749;49.964;7.890;2023-03-14T10:50:54;0.40;;;0.40;;
15295;SDS011;7749;49.964;7.890;2023-03-14T10:53:25;0.33;;;0.30;;
15295;SDS011;7749;49.964;7.890;2023-03-14T10:55:55;0.57;;;0.57;;
15295;SDS011;7749;49.964;7.890;2023-03-14T10:58:30;0.70;;;0.50;;
15295;SDS011;7749;49.964;7.890;2023-03-14T11:03:38;2.10;;;0.50;;
15295;SDS011;7749;49.964;7.890;2023-03-14T11:06:16;0.57;;;0.40;;
15295;SDS011;7749;49.964;7.890;2023-03-14T11:11:47;0.40;;;0.37;;
15295;SDS011;7749;49.964;7.890;2023-03-14T11:14:34;1.03;;;0.53;;
15295;SDS011;7749;49.964;7.890;2023-03-14T11:17:21;0.53;;;0.40;;
15295;SDS011;7749;49.964;7.890;2023-03-14T11:22:46;1.80;;;0.80;;
15295;SDS011;7749;49.964;7.890;2023-03-14T11:25:29;1.93;;;0.40;;
15295;SDS011;7749;49.964;7.890;2023-03-14T11:28:05;0.33;;;0.30;;
15295;SDS011;7749;49.964;7.890;2023-03-14T11:30:51;1.47;;;0.57;;
15295;SDS011;7749;49.964;7.890;2023-03-14T11:36:26;0.60;;;0.60;;
15295;SDS011;7749;49.964;7.890;2023-03-14T11:38:58;0.67;;;0.60;;
15295;SDS011;7749;49.964;7.890;2023-03-14T11:44:02;1.23;;;0.90;;
15295;SDS011;7749;49.964;7.890;2023-03-14T11:46:37;2.30;;;1.30;;
15295;SDS011;7749;49.964;7.890;2023-03-14T11:49:25;1.23;;;0.50;;
15295;SDS011;7749;49.964;7.890;2023-03-14T11:52:01;4.03;;;1.97;;
15295;SDS011;7749;49.964;7.890;2023-03-14T11:57:27;0.30;;;0.30;;
15295;SDS011;7749;49.964;7.890;2023-03-14T12:00:00;1.17;;;1.07;;
15295;SDS011;7749;49.964;7.890;2023-03-14T12:10:38;1.43;;;1.33;;
15295;SDS011;7749;49.964;7.890;2023-03-14T12:13:10;0.30;;;0.30;;
15295;SDS011;7749;49.964;7.890;2023-03-14T12:15:40;1.87;;;1.00;;
15295;SDS011;7749;49.964;7.890;2023-03-14T12:18:21;0.20;;;0.20;;
15295;SDS011;7749;49.964;7.890;2023-03-14T12:20:56;0.23;;;0.23;;
15295;SDS011;7749;49.964;7.890;2023-03-14T12:23:27;0.20;;;0.20;;
15295;SDS011;7749;49.964;7.890;2023-03-14T12:26:08;0.20;;;0.20;;
15295;SDS011;7749;49.964;7.890;2023-03-14T12:28:42;0.20;;;0.20;;
15295;SDS011;7749;49.964;7.890;2023-03-14T12:34:02;0.20;;;0.20;;
15295;SDS011;7749;49.964;7.890;2023-03-14T12:39:31;3.60;;;0.30;;
15295;SDS011;7749;49.964;7.890;2023-03-14T12:50:53;0.40;;;0.40;;
15295;SDS011;7749;49.964;7.890;2023-03-14T13:01:45;1.50;;;0.53;;
15295;SDS011;7749;49.964;7.890;2023-03-14T13:04:27;0.67;;;0.67;;
15295;SDS011;7749;49.964;7.890;2023-03-14T13:07:29;0.60;;;0.60;;
15295;SDS011;7749;49.964;7.890;2023-03-14T13:15:54;1.70;;;0.80;;
15295;SDS011;7749;49.964;7.890;2023-03-14T13:18:33;0.87;;;0.87;;
15295;SDS011;7749;49.964;7.890;2023-03-14T13:26:41;2.47;;;1.20;;
15295;SDS011;7749;49.964;7.890;2023-03-14T13:29:18;1.37;;;1.00;;
15295;SDS011;7749;49.964;7.890;2023-03-14T13:31:49;2.40;;;1.23;;
15295;SDS011;7749;49.964;7.890;2023-03-14T13:34:18;1.00;;;0.77;;
15295;SDS011;7749;49.964;7.890;2023-03-14T13:36:46;3.33;;;0.70;;
15295;SDS011;7749;49.964;7.890;2023-03-14T13:39:19;1.43;;;1.20;;
15295;SDS011;7749;49.964;7.890;2023-03-14T13:41:59;0.70;;;0.70;;
15295;SDS011;7749;49.964;7.890;2023-03-14T13:44:31;0.97;;;0.80;;
15295;SDS011;7749;49.964;7.890;2023-03-14T13:47:02;1.47;;;1.00;;
15295;SDS011;7749;49.964;7.890;2023-03-14T13:49:32;0.80;;;0.80;;
15295;SDS011;7749;49.964;7.890;2023-03-14T13:52:02;1.37;;;0.77;;
15295;SDS011;7749;49.964;7.890;2023-03-14T13:54:48;0.73;;;0.70;;
15295;SDS011;7749;49.964;7.890;2023-03-14T13:57:19;0.70;;;0.60;;
15295;SDS011;7749;49.964;7.890;2023-03-14T14:02:47;0.97;;;0.80;;
15295;SDS011;7749;49.964;7.890;2023-03-14T14:05:15;2.43;;;0.90;;
15295;SDS011;7749;49.964;7.890;2023-03-14T14:07:43;1.20;;;0.87;;
15295;SDS011;7749;49.964;7.890;2023-03-14T14:10:12;2.40;;;1.00;;
15295;SDS011;7749;49.964;7.890;2023-03-14T14:15:43;1.67;;;1.10;;
15295;SDS011;7749;49.964;7.890;2023-03-14T14:18:14;2.07;;;0.90;;
15295;SDS011;7749;49.964;7.890;2023-03-14T14:20:45;1.08;;;0.80;;
15295;SDS011;7749;49.964;7.890;2023-03-14T14:23:21;1.13;;;1.02;;
15295;SDS011;7749;49.964;7.890;2023-03-14T14:25:56;2.22;;;0.93;;
15295;SDS011;7749;49.964;7.890;2023-03-14T14:28:26;1.67;;;0.87;;
15295;SDS011;7749;49.964;7.890;2023-03-14T14:33:58;1.27;;;1.10;;
15295;SDS011;7749;49.964;7.890;2023-03-14T14:36:40;2.03;;;1.20;;
15295;SDS011;7749;49.964;7.890;2023-03-14T14:41:48;1.57;;;0.83;;
15295;SDS011;7749;49.964;7.890;2023-03-14T14:44:18;1.50;;;0.90;;
15295;SDS011;7749;49.964;7.890;2023-03-14T14:46:52;2.27;;;1.10;;
15295;SDS011;7749;49.964;7.890;2023-03-14T14:55:11;2.30;;;0.90;;
15295;SDS011;7749;49.964;7.890;2023-03-14T14:57:51;1.13;;;0.93;;
15295;SDS011;7749;49.964;7.890;2023-03-14T15:00:23;2.03;;;0.90;;
15295;SDS011;7749;49.964;7.890;2023-03-14T15:02:53;2.67;;;0.93;;
15295;SDS011;7749;49.964;7.890;2023-03-14T15:08:09;1.97;;;1.10;;
15295;SDS011;7749;49.964;7.890;2023-03-14T15:10:37;2.07;;;1.10;;
15295;SDS011;7749;49.964;7.890;2023-03-14T15:13:04;1.80;;;0.70;;
15295;SDS011;7749;49.964;7.890;2023-03-14T15:15:32;2.00;;;0.90;;
15295;SDS011;7749;49.964;7.890;2023-03-14T15:18:01;1.73;;;1.03;;
15295;SDS011;7749;49.964;7.890;2023-03-14T15:20:29;1.23;;;0.80;;
15295;SDS011;7749;49.964;7.890;2023-03-14T15:22:57;1.13;;;0.80;;
15295;SDS011;7749;49.964;7.890;2023-03-14T15:25:25;1.83;;;1.00;;
15295;SDS011;7749;49.964;7.890;2023-03-14T15:28:16;0.93;;;0.70;;
15295;SDS011;7749;49.964;7.890;2023-03-14T15:30:48;1.47;;;1.00;;
15295;SDS011;7749;49.964;7.890;2023-03-14T15:33:23;1.60;;;0.80;;
15295;SDS011;7749;49.964;7.890;2023-03-14T15:35:52;2.00;;;1.20;;
15295;SDS011;7749;49.964;7.890;2023-03-14T15:38:20;1.47;;;0.77;;
15295;SDS011;7749;49.964;7.890;2023-03-14T15:40:50;1.77;;;0.97;;
15295;SDS011;7749;49.964;7.890;2023-03-14T15:43:18;1.17;;;0.73;;
15295;SDS011;7749;49.964;7.890;2023-03-14T15:45:46;1.87;;;1.00;;
15295;SDS011;7749;49.964;7.890;2023-03-14T15:48:15;2.30;;;1.20;;
15295;SDS011;7749;49.964;7.890;2023-03-14T15:50:45;1.77;;;0.67;;
15295;SDS011;7749;49.964;7.890;2023-03-14T15:53:13;1.30;;;0.73;;
15295;SDS011;7749;49.964;7.890;2023-03-14T15:55:40;2.90;;;1.30;;
15295;SDS011;7749;49.964;7.890;2023-03-14T15:58:10;1.83;;;1.27;;
15295;SDS011;7749;49.964;7.890;2023-03-14T16:00:47;2.40;;;1.03;;
15295;SDS011;7749;49.964;7.890;2023-03-14T16:03:16;2.53;;;1.10;;
15295;SDS011;7749;49.964;7.890;2023-03-14T16:05:43;3.33;;;1.23;;
15295;SDS011;7749;49.964;7.890;2023-03-14T16:08:11;3.77;;;0.90;;
15295;SDS011;7749;49.964;7.890;2023-03-14T16:10:39;3.13;;;0.93;;
15295;SDS011;7749;49.964;7.890;2023-03-14T16:13:07;3.87;;;0.90;;
15295;SDS011;7749;49.964;7.890;2023-03-14T16:15:34;2.60;;;0.90;;
15295;SDS011;7749;49.964;7.890;2023-03-14T16:18:02;2.50;;;0.93;;
15295;SDS011;7749;49.964;7.890;2023-03-14T16:20:53;1.53;;;0.70;;
15295;SDS011;7749;49.964;7.890;2023-03-14T16:23:22;2.93;;;1.00;;
15295;SDS011;7749;49.964;7.890;2023-03-14T16:25:50;3.57;;;1.00;;
15295;SDS011;7749;49.964;7.890;2023-03-14T16:28:18;2.20;;;0.80;;
15295;SDS011;7749;49.964;7.890;2023-03-14T16:30:46;1.93;;;0.77;;
15295;SDS011;7749;49.964;7.890;2023-03-14T16:33:14;2.07;;;1.50;;
15295;SDS011;7749;49.964;7.890;2023-03-14T16:35:56;2.60;;;1.10;;
15295;SDS011;7749;49.964;7.890;2023-03-14T16:38:27;1.47;;;1.27;;
15295;SDS011;7749;49.964;7.890;2023-03-14T16:43:28;1.40;;;0.70;;
15295;SDS011;7749;49.964;7.890;2023-03-14T16:45:57;1.03;;;0.80;;
15295;SDS011;7749;49.964;7.890;2023-03-14T16:48:26;2.40;;;0.90;;
15295;SDS011;7749;49.964;7.890;2023-03-14T16:50:54;2.37;;;0.93;;
15295;SDS011;7749;49.964;7.890;2023-03-14T16:53:23;1.00;;;0.50;;
15295;SDS011;7749;49.964;7.890;2023-03-14T16:55:51;1.43;;;0.80;;